Mphakane, South Africa
Current Conditions -  °F | °C
As of 5:00 AM on Wednesday 22 Oct 2014 (Local Time) from FAPP Reporting Station
Overcast Overcast  
Wind Chill: 55°   Ceiling: 1000
Heat Index: 55°   Visibility: 6mi
Dew Point: 50°   Wind: 8mph
Humidity: 82%   Direction: 30°NNE
Pressure: 30.24"   Gusts: NA
Location:  23.52°S, 29.7°E
Report Text: FAPP 220300Z 03007KT 9999 OVC010 13/10 Q1024 TEMPO 5000 BR
Loading
Personal Weather Stations






























Interactive Weather Map
Tropical Storm Tracking
New forecast layout! Learn more

10-Day Weather Forecast

Advertisements
Track Severe Weather on mobile